createdAt,value
2022-10-04T00:02:29.971Z,2.42
2022-10-04T00:05:04.455Z,2.08
2022-10-04T00:07:35.308Z,1.95
2022-10-04T00:10:16.440Z,2.22
2022-10-04T00:12:49.309Z,1.98
2022-10-04T00:15:21.990Z,2.10
2022-10-04T00:18:05.909Z,1.85
2022-10-04T00:20:58.959Z,1.70
2022-10-04T00:23:30.590Z,2.10
2022-10-04T00:26:01.957Z,2.30
2022-10-04T00:28:43.461Z,2.05
2022-10-04T00:31:23.155Z,1.92
2022-10-04T00:33:57.207Z,1.83
2022-10-04T00:36:53.554Z,2.00
2022-10-04T00:39:42.308Z,1.70
2022-10-04T00:42:37.193Z,1.90
2022-10-04T00:45:14.065Z,2.25
2022-10-04T00:48:10.969Z,2.08
2022-10-04T00:50:44.152Z,2.00
2022-10-04T00:53:19.220Z,1.88
2022-10-04T00:55:52.161Z,1.60
2022-10-04T00:58:24.725Z,1.60
2022-10-04T01:00:55.516Z,1.30
2022-10-04T01:03:29.039Z,2.05
2022-10-04T01:06:00.721Z,1.63
2022-10-04T01:08:33.649Z,2.22
2022-10-04T01:11:06.430Z,1.83
2022-10-04T01:13:40.133Z,1.73
2022-10-04T01:16:14.677Z,1.98
2022-10-04T01:18:43.006Z,2.42
2022-10-04T01:21:27.339Z,2.30
2022-10-04T01:24:17.407Z,2.20
2022-10-04T01:26:45.976Z,2.25
2022-10-04T01:29:17.457Z,2.47
2022-10-04T01:31:47.795Z,2.65
2022-10-04T01:34:18.351Z,1.92
2022-10-04T01:36:48.878Z,2.40
2022-10-04T01:39:20.523Z,2.30
2022-10-04T01:41:54.467Z,2.95
2022-10-04T01:44:28.360Z,2.70
2022-10-04T01:46:59.632Z,3.50
2022-10-04T01:49:30.830Z,2.95
2022-10-04T01:52:03.842Z,3.60
2022-10-04T01:54:42.049Z,3.50
2022-10-04T01:57:16.180Z,3.50
2022-10-04T01:59:50.355Z,3.90
2022-10-04T02:02:27.017Z,3.90
2022-10-04T02:07:26.620Z,3.20
2022-10-04T02:10:01.453Z,3.13
2022-10-04T02:12:34.343Z,3.42
2022-10-04T02:15:06.275Z,3.50
2022-10-04T02:17:39.770Z,2.92
2022-10-04T02:20:13.597Z,3.08
2022-10-04T02:22:43.417Z,3.00
2022-10-04T02:25:14.934Z,3.30
2022-10-04T02:27:44.121Z,3.75
2022-10-04T02:30:14.132Z,2.97
2022-10-04T02:32:59.975Z,3.25
2022-10-04T02:35:30.430Z,3.17
2022-10-04T02:38:13.102Z,3.05
2022-10-04T02:40:50.465Z,3.55
2022-10-04T02:43:23.092Z,3.03
2022-10-04T02:45:55.632Z,2.90
2022-10-04T02:48:32.466Z,2.72
2022-10-04T02:51:07.183Z,2.78
2022-10-04T02:53:44.204Z,2.55
2022-10-04T02:56:14.143Z,2.60
2022-10-04T02:58:42.795Z,2.30
2022-10-04T03:01:18.681Z,2.55
2022-10-04T03:03:47.934Z,2.13
2022-10-04T03:06:20.035Z,2.25
2022-10-04T03:08:51.689Z,2.17
2022-10-04T03:11:23.700Z,2.17
2022-10-04T03:13:54.515Z,2.20
2022-10-04T03:16:24.016Z,2.22
2022-10-04T03:18:53.593Z,2.03
2022-10-04T03:21:23.473Z,2.55
2022-10-04T03:23:52.412Z,2.10
2022-10-04T03:26:33.022Z,1.80
2022-10-04T03:29:01.398Z,1.90
2022-10-04T03:31:30.208Z,1.67
2022-10-04T03:33:58.987Z,1.50
2022-10-04T03:36:27.895Z,1.40
2022-10-04T03:38:57.709Z,1.33
2022-10-04T03:41:27.647Z,1.38
2022-10-04T03:43:58.608Z,1.52
2022-10-04T03:46:29.901Z,1.50
2022-10-04T03:48:58.901Z,1.48
2022-10-04T03:51:27.971Z,1.05
2022-10-04T03:53:58.531Z,1.55
2022-10-04T03:56:31.093Z,1.40
2022-10-04T03:58:59.440Z,1.08
2022-10-04T04:01:40.086Z,1.25
2022-10-04T04:04:18.842Z,1.23
2022-10-04T04:06:52.731Z,1.20
2022-10-04T04:09:25.257Z,1.08
2022-10-04T04:11:57.181Z,1.50
2022-10-04T04:14:27.090Z,1.30
2022-10-04T04:17:29.852Z,1.52
2022-10-04T04:20:03.472Z,1.77
2022-10-04T04:22:35.672Z,1.60
2022-10-04T04:25:08.547Z,1.80
2022-10-04T04:27:42.210Z,1.58
2022-10-04T04:30:17.981Z,1.73
2022-10-04T04:32:50.429Z,1.97
2022-10-04T04:35:24.276Z,2.53
2022-10-04T04:38:17.760Z,2.92
2022-10-04T04:40:46.131Z,3.00
2022-10-04T04:43:20.161Z,2.90
2022-10-04T04:46:03.042Z,2.55
2022-10-04T04:48:37.701Z,3.03
2022-10-04T04:51:06.173Z,2.50
2022-10-04T04:53:34.967Z,2.63
2022-10-04T04:56:05.152Z,2.47
2022-10-04T04:58:38.301Z,2.70
2022-10-04T05:01:13.660Z,2.13
2022-10-04T05:03:42.444Z,2.63
2022-10-04T05:06:25.612Z,1.95
2022-10-04T05:08:53.753Z,2.70
2022-10-04T05:11:24.402Z,2.75
2022-10-04T05:13:57.983Z,2.08
2022-10-04T05:16:32.368Z,3.20
2022-10-04T05:19:03.492Z,2.50
2022-10-04T05:21:33.752Z,2.58
2022-10-04T05:24:11.152Z,3.45
2022-10-04T05:26:41.856Z,3.45
2022-10-04T05:29:16.874Z,4.28
2022-10-04T05:31:51.017Z,3.63
2022-10-04T05:34:23.631Z,3.70
2022-10-04T05:37:06.941Z,2.70
2022-10-04T05:39:43.034Z,2.90
2022-10-04T05:42:20.094Z,2.35
2022-10-04T05:44:52.252Z,2.50
2022-10-04T05:47:24.292Z,3.42
2022-10-04T05:49:54.592Z,3.22
2022-10-04T05:52:33.491Z,3.80
2022-10-04T05:55:28.604Z,3.90
2022-10-04T05:58:25.572Z,4.32
2022-10-04T06:01:17.656Z,4.07
2022-10-04T06:04:00.381Z,4.68
2022-10-04T06:06:38.702Z,4.30
2022-10-04T06:09:14.332Z,4.28
2022-10-04T06:11:53.663Z,4.03
2022-10-04T06:14:46.041Z,3.38
2022-10-04T06:17:45.291Z,3.85
2022-10-04T06:20:36.197Z,3.20
2022-10-04T06:23:12.283Z,3.00
2022-10-04T06:25:46.443Z,3.40
2022-10-04T06:28:19.424Z,2.92
2022-10-04T06:31:10.463Z,3.00
2022-10-04T06:33:59.168Z,2.65
2022-10-04T06:37:00.298Z,2.30
2022-10-04T06:39:52.690Z,2.97
2022-10-04T06:42:47.172Z,2.70
2022-10-04T06:45:35.357Z,2.40
2022-10-04T06:48:22.934Z,2.33
2022-10-04T06:51:02.390Z,2.70
2022-10-04T06:53:39.691Z,2.88
2022-10-04T06:56:31.211Z,2.78
2022-10-04T06:59:22.697Z,2.42
2022-10-04T07:01:53.751Z,2.65
2022-10-04T07:04:41.103Z,2.30
2022-10-04T07:07:35.702Z,2.53
2022-10-04T07:10:24.591Z,2.97
2022-10-04T07:13:06.150Z,3.03
2022-10-04T07:15:43.458Z,3.08
2022-10-04T07:18:18.711Z,3.10
2022-10-04T07:20:49.342Z,2.72
2022-10-04T07:23:28.521Z,2.65
2022-10-04T07:26:01.514Z,3.50
2022-10-04T07:28:52.271Z,3.13
2022-10-04T07:31:28.349Z,2.90
2022-10-04T07:34:00.342Z,3.50
2022-10-04T07:36:31.712Z,2.88
2022-10-04T07:39:06.930Z,2.80
2022-10-04T07:41:39.118Z,3.15
2022-10-04T07:44:16.409Z,4.00
2022-10-04T07:46:50.229Z,3.92
2022-10-04T07:49:20.210Z,4.38
2022-10-04T07:52:13.223Z,4.70
2022-10-04T07:54:47.581Z,6.55
2022-10-04T07:57:22.124Z,6.72
2022-10-04T07:59:58.417Z,6.80
2022-10-04T08:02:41.582Z,7.38
2022-10-04T08:05:23.480Z,6.10
2022-10-04T08:08:09.338Z,5.90
2022-10-04T08:10:52.124Z,5.53
2022-10-04T08:13:28.371Z,5.28
2022-10-04T08:16:02.362Z,4.60
2022-10-04T08:18:47.201Z,4.30
2022-10-04T08:21:21.765Z,3.28
2022-10-04T08:24:05.139Z,3.53
2022-10-04T08:26:53.388Z,3.05
2022-10-04T08:29:43.181Z,3.42
2022-10-04T08:32:36.674Z,2.47
2022-10-04T08:35:36.805Z,2.70
2022-10-04T08:38:21.491Z,2.65
2022-10-04T08:41:27.747Z,2.45
2022-10-04T08:44:32.484Z,2.72
2022-10-04T08:47:43.472Z,2.50
2022-10-04T08:50:44.659Z,3.00
2022-10-04T08:53:45.938Z,2.13
2022-10-04T08:56:38.689Z,2.15
2022-10-04T08:59:36.221Z,1.90
2022-10-04T09:02:37.598Z,1.95
2022-10-04T09:05:29.487Z,2.28
2022-10-04T09:08:18.532Z,2.22
2022-10-04T09:11:00.930Z,2.22
2022-10-04T09:13:45.616Z,1.90
2022-10-04T09:16:19.400Z,1.55
2022-10-04T09:18:58.306Z,1.52
2022-10-04T09:21:43.073Z,1.58
2022-10-04T09:24:35.782Z,1.70
2022-10-04T09:27:36.806Z,1.75
2022-10-04T09:30:15.801Z,1.30
2022-10-04T09:33:26.197Z,1.83
2022-10-04T09:36:23.729Z,1.63
2022-10-04T09:39:30.288Z,1.75
2022-10-04T09:42:21.514Z,2.20
2022-10-04T09:45:33.594Z,1.60
2022-10-04T09:48:30.036Z,2.22
2022-10-04T09:51:42.227Z,1.98
2022-10-04T09:54:34.334Z,2.03
2022-10-04T09:57:28.273Z,1.90
2022-10-04T10:00:10.062Z,2.05
2022-10-04T10:03:28.242Z,2.22
2022-10-04T10:06:22.722Z,1.67
2022-10-04T10:09:06.110Z,1.80
2022-10-04T10:12:03.771Z,2.08
2022-10-04T10:14:55.862Z,2.33
2022-10-04T10:17:36.653Z,2.55
2022-10-04T10:20:31.733Z,1.90
2022-10-04T10:23:22.011Z,1.65
2022-10-04T10:26:23.101Z,2.03
2022-10-04T10:29:17.538Z,1.60
2022-10-04T10:32:09.472Z,1.65
2022-10-04T10:35:16.767Z,1.48
2022-10-04T10:38:03.611Z,2.00
2022-10-04T10:40:46.320Z,1.75
2022-10-04T10:43:36.987Z,1.80
2022-10-04T10:46:23.762Z,1.90
2022-10-04T10:49:04.976Z,1.55
2022-10-04T10:52:06.429Z,1.50
2022-10-04T10:55:00.089Z,1.58
2022-10-04T10:57:59.062Z,1.40
2022-10-04T11:00:45.026Z,1.60
2022-10-04T11:03:44.199Z,1.50
2022-10-04T11:06:29.706Z,1.27
2022-10-04T11:09:29.916Z,1.52
2022-10-04T11:12:17.901Z,1.13
2022-10-04T11:15:09.818Z,1.40
2022-10-04T11:18:04.669Z,1.58
2022-10-04T11:21:15.946Z,1.42
2022-10-04T11:24:19.866Z,1.40
2022-10-04T11:27:11.090Z,1.30
2022-10-04T11:29:55.476Z,1.38
2022-10-04T11:32:54.885Z,1.35
2022-10-04T11:35:53.658Z,1.83
2022-10-04T11:38:34.286Z,1.50
2022-10-04T11:41:15.866Z,1.45
2022-10-04T11:44:15.035Z,1.35
2022-10-04T11:46:53.551Z,1.40
2022-10-04T11:49:50.743Z,1.23
2022-10-04T11:52:45.017Z,1.58
2022-10-04T11:55:54.479Z,1.38
2022-10-04T11:58:34.506Z,1.60
2022-10-04T12:01:32.396Z,1.17
2022-10-04T12:04:31.833Z,1.20
2022-10-04T12:07:22.986Z,1.05
2022-10-04T12:10:02.165Z,1.10
2022-10-04T12:12:54.375Z,1.27
2022-10-04T12:15:41.825Z,1.45
2022-10-04T12:18:55.845Z,1.00
2022-10-04T12:22:03.624Z,1.02
2022-10-04T12:27:59.923Z,0.80
2022-10-04T12:30:39.667Z,0.70
2022-10-04T12:33:17.065Z,0.90
2022-10-04T12:35:59.287Z,0.68
2022-10-04T12:38:50.424Z,0.80
2022-10-04T12:41:31.105Z,0.90
2022-10-04T12:44:13.513Z,0.70
2022-10-04T12:46:55.105Z,0.60
2022-10-04T12:49:35.195Z,0.60
2022-10-04T12:52:11.277Z,0.60
2022-10-04T12:54:44.136Z,0.70
2022-10-04T12:57:41.311Z,0.70
2022-10-04T13:00:19.407Z,0.73
2022-10-04T13:03:24.967Z,0.82
2022-10-04T13:06:03.325Z,0.95
2022-10-04T13:08:53.856Z,0.82
2022-10-04T13:11:52.596Z,0.88
2022-10-04T13:14:50.882Z,0.90
2022-10-04T13:17:35.864Z,0.55
2022-10-04T13:20:23.810Z,0.63
2022-10-04T13:22:58.983Z,0.65
2022-10-04T13:25:45.879Z,1.05
2022-10-04T13:28:23.788Z,1.02
2022-10-04T13:31:01.848Z,0.73
2022-10-04T13:33:41.830Z,1.30
2022-10-04T13:36:18.201Z,1.15
2022-10-04T13:39:07.549Z,0.95
2022-10-04T13:41:54.763Z,1.23
2022-10-04T13:44:46.061Z,0.90
2022-10-04T13:47:36.793Z,1.08
2022-10-04T13:50:27.003Z,1.02
2022-10-04T13:53:27.249Z,0.90
2022-10-04T13:56:20.493Z,1.20
2022-10-04T13:58:53.984Z,1.15
2022-10-04T14:02:02.231Z,1.10
2022-10-04T14:05:09.616Z,1.17
2022-10-04T14:08:21.625Z,1.13
2022-10-04T14:11:21.693Z,0.88
2022-10-04T14:14:13.351Z,0.80
2022-10-04T14:17:11.913Z,0.88
2022-10-04T14:20:07.143Z,1.05
2022-10-04T14:23:00.905Z,1.02
2022-10-04T14:26:10.764Z,1.15
2022-10-04T14:29:14.823Z,0.95
2022-10-04T14:32:13.648Z,1.63
2022-10-04T14:35:02.054Z,1.30
2022-10-04T14:38:08.354Z,1.20
2022-10-04T14:41:37.182Z,1.00
2022-10-04T14:44:45.449Z,1.15
2022-10-04T14:51:06.113Z,1.20
2022-10-04T14:53:42.452Z,1.17
2022-10-04T14:56:58.122Z,1.27
2022-10-04T14:59:47.721Z,1.98
2022-10-04T15:02:44.073Z,1.92
2022-10-04T15:05:35.923Z,1.87
2022-10-04T15:08:34.846Z,2.25
2022-10-04T15:11:06.797Z,2.35
2022-10-04T15:13:41.408Z,1.50
2022-10-04T15:16:17.968Z,4.82
2022-10-04T15:18:52.799Z,15.15
2022-10-04T15:21:52.269Z,19.10
2022-10-04T15:24:27.763Z,8.02
2022-10-04T15:27:31.831Z,4.20
2022-10-04T15:30:10.880Z,3.30
2022-10-04T15:32:47.379Z,2.33
2022-10-04T15:35:25.388Z,1.95
2022-10-04T15:37:59.307Z,2.28
2022-10-04T15:40:38.536Z,2.30
2022-10-04T15:43:18.944Z,2.53
2022-10-04T15:46:27.531Z,2.20
2022-10-04T15:49:31.821Z,1.90
2022-10-04T15:52:26.841Z,1.80
2022-10-04T15:55:21.854Z,2.10
2022-10-04T15:58:15.612Z,2.33
2022-10-04T16:00:54.166Z,2.10
2022-10-04T16:03:40.679Z,1.90
2022-10-04T16:06:12.820Z,1.70
2022-10-04T16:08:58.507Z,1.70
2022-10-04T16:11:39.220Z,2.08
2022-10-04T16:14:29.728Z,2.88
2022-10-04T16:17:12.879Z,2.00
2022-10-04T16:20:15.270Z,2.28
2022-10-04T16:23:26.827Z,2.10
2022-10-04T16:25:56.549Z,2.30
2022-10-04T16:28:44.906Z,2.35
2022-10-04T16:31:27.420Z,2.42
2022-10-04T16:34:04.201Z,2.65
2022-10-04T16:40:06.133Z,2.90
2022-10-04T16:42:47.420Z,2.33
2022-10-04T16:45:46.639Z,2.53
2022-10-04T16:48:29.750Z,1.90
2022-10-04T16:51:26.359Z,2.35
2022-10-04T16:53:59.914Z,2.60
2022-10-04T16:56:30.014Z,2.95
2022-10-04T16:59:00.973Z,3.20
2022-10-04T17:02:07.093Z,3.13
2022-10-04T17:05:08.055Z,3.20
2022-10-04T17:07:53.212Z,2.97
2022-10-04T17:10:34.518Z,2.80
2022-10-04T17:13:16.897Z,2.22
2022-10-04T17:15:49.370Z,2.10
2022-10-04T17:18:31.444Z,2.38
2022-10-04T17:21:06.293Z,2.20
2022-10-04T17:24:00.467Z,2.75
2022-10-04T17:26:47.732Z,2.33
2022-10-04T17:29:37.244Z,2.30
2022-10-04T17:32:17.168Z,2.00
2022-10-04T17:34:58.716Z,2.15
2022-10-04T17:37:36.478Z,1.92
2022-10-04T17:40:41.466Z,2.80
2022-10-04T17:43:21.874Z,2.65
2022-10-04T17:46:17.901Z,2.55
2022-10-04T17:49:08.579Z,2.08
2022-10-04T17:52:13.660Z,2.97
2022-10-04T17:55:05.818Z,3.33
2022-10-04T17:57:43.668Z,2.90
2022-10-04T18:00:13.674Z,3.50
2022-10-04T18:03:07.907Z,3.25
2022-10-04T18:05:47.013Z,3.95
2022-10-04T18:08:21.354Z,4.13
2022-10-04T18:10:52.626Z,3.55
2022-10-04T18:13:29.043Z,3.47
2022-10-04T18:16:04.501Z,4.13
2022-10-04T18:18:51.199Z,3.42
2022-10-04T18:21:22.459Z,3.72
2022-10-04T18:23:56.264Z,4.18
2022-10-04T18:26:28.466Z,3.80
2022-10-04T18:28:58.001Z,4.75
2022-10-04T18:31:38.620Z,7.05
2022-10-04T18:34:20.249Z,8.52
2022-10-04T18:36:56.914Z,7.65
2022-10-04T18:39:25.451Z,7.85
2022-10-04T18:42:12.554Z,7.97
2022-10-04T18:44:47.749Z,7.30
2022-10-04T18:47:21.395Z,7.70
2022-10-04T18:49:52.498Z,8.27
2022-10-04T18:52:32.847Z,7.68
2022-10-04T18:55:14.152Z,7.70
2022-10-04T18:58:07.278Z,8.00
2022-10-04T19:01:02.584Z,7.03
2022-10-04T19:03:38.625Z,6.93
2022-10-04T19:06:16.681Z,6.90
2022-10-04T19:08:58.222Z,6.72
2022-10-04T19:11:33.713Z,7.22
2022-10-04T19:14:08.834Z,7.28
2022-10-04T19:16:44.101Z,6.90
2022-10-04T19:19:32.251Z,6.40
2022-10-04T19:22:03.761Z,6.60
2022-10-04T19:25:00.870Z,6.40
2022-10-04T19:27:36.776Z,6.35
2022-10-04T19:30:15.984Z,5.18
2022-10-04T19:33:00.258Z,5.30
2022-10-04T19:35:40.849Z,4.82
2022-10-04T19:38:26.583Z,5.97
2022-10-04T19:41:01.838Z,10.20
2022-10-04T19:43:42.672Z,10.68
2022-10-04T19:46:24.201Z,13.10
2022-10-04T19:48:53.780Z,12.80
2022-10-04T19:51:28.611Z,14.13
2022-10-04T19:54:04.058Z,13.02
2022-10-04T19:56:36.218Z,9.77
2022-10-04T19:59:12.058Z,8.63
2022-10-04T20:01:41.587Z,8.25
2022-10-04T20:04:33.324Z,8.02
2022-10-04T20:07:02.698Z,8.18
2022-10-04T20:09:51.815Z,7.82
2022-10-04T20:12:33.245Z,8.95
2022-10-04T20:15:39.130Z,9.85
2022-10-04T20:19:05.923Z,9.57
2022-10-04T20:21:34.269Z,11.25
2022-10-04T20:24:02.674Z,9.40
2022-10-04T20:27:01.551Z,8.85
2022-10-04T20:30:04.425Z,8.00
2022-10-04T20:32:57.780Z,8.18
2022-10-04T20:36:09.441Z,6.47
2022-10-04T20:38:52.010Z,4.70
2022-10-04T20:42:03.907Z,4.80
2022-10-04T20:45:04.207Z,4.70
2022-10-04T20:47:39.770Z,4.28
2022-10-04T20:50:19.021Z,4.18
2022-10-04T20:52:48.799Z,4.40
2022-10-04T20:55:28.354Z,4.57
2022-10-04T20:58:01.908Z,4.53
2022-10-04T21:00:34.118Z,3.97
2022-10-04T21:03:16.676Z,4.55
2022-10-04T21:05:49.870Z,4.53
2022-10-04T21:08:25.840Z,4.18
2022-10-04T21:11:13.274Z,4.20
2022-10-04T21:13:52.998Z,4.35
2022-10-04T21:16:41.645Z,4.45
2022-10-04T21:19:48.917Z,4.45
2022-10-04T21:22:40.512Z,4.78
2022-10-04T21:25:32.304Z,5.05
2022-10-04T21:28:39.546Z,5.60
2022-10-04T21:31:09.135Z,5.40
2022-10-04T21:33:37.466Z,5.80
2022-10-04T21:36:06.164Z,6.28
2022-10-04T21:38:34.086Z,5.22
2022-10-04T21:41:01.946Z,5.45
2022-10-04T21:43:29.973Z,5.72
2022-10-04T21:45:58.125Z,6.10
2022-10-04T21:48:27.673Z,6.97
2022-10-04T21:50:55.605Z,5.88
2022-10-04T21:53:32.715Z,6.80
2022-10-04T21:56:00.651Z,7.00
2022-10-04T21:58:28.360Z,6.07
2022-10-04T22:00:56.640Z,5.90
2022-10-04T22:03:24.542Z,6.22
2022-10-04T22:05:53.794Z,5.60
2022-10-04T22:08:21.885Z,5.28
2022-10-04T22:10:52.231Z,4.53
2022-10-04T22:13:22.366Z,3.83
2022-10-04T22:15:50.363Z,3.58
2022-10-04T22:18:18.277Z,3.40
2022-10-04T22:20:46.021Z,3.60
2022-10-04T22:23:19.594Z,3.60
2022-10-04T22:25:47.670Z,3.60
2022-10-04T22:28:21.949Z,3.78
2022-10-04T22:30:50.618Z,3.20
2022-10-04T22:33:29.052Z,3.92
2022-10-04T22:35:58.106Z,4.10
2022-10-04T22:38:27.163Z,3.50
2022-10-04T22:40:55.530Z,3.50
2022-10-04T22:43:23.137Z,4.75
2022-10-04T22:45:51.819Z,3.50
2022-10-04T22:48:19.469Z,4.35
2022-10-04T22:50:47.274Z,4.40
2022-10-04T22:53:20.035Z,4.03
2022-10-04T22:55:50.082Z,4.47
2022-10-04T22:58:18.460Z,4.18
2022-10-04T23:00:46.184Z,4.32
2022-10-04T23:03:25.181Z,4.75
2022-10-04T23:05:53.143Z,5.15
2022-10-04T23:08:20.825Z,4.35
2022-10-04T23:10:54.767Z,4.63
2022-10-04T23:13:24.844Z,5.30
2022-10-04T23:15:55.425Z,4.93
2022-10-04T23:18:23.697Z,4.60
2022-10-04T23:20:58.190Z,5.32
2022-10-04T23:23:28.410Z,5.32
2022-10-04T23:25:57.819Z,5.95
2022-10-04T23:28:25.947Z,5.45
2022-10-04T23:31:05.789Z,4.78
2022-10-04T23:33:34.310Z,5.07
2022-10-04T23:36:01.957Z,5.40
2022-10-04T23:38:31.324Z,5.53
2022-10-04T23:41:00.894Z,4.53
2022-10-04T23:43:31.921Z,5.10
2022-10-04T23:46:00.289Z,4.82
2022-10-04T23:51:05.631Z,4.03
2022-10-04T23:53:34.269Z,3.83
2022-10-04T23:56:09.336Z,3.85
2022-10-04T23:58:39.961Z,4.18
